sensor_id;sensor_type;location;lat;lon;timestamp;pressure;altitude;pressure_sealevel;temperature;humidity
72061;BME280;59925;52.136;5.420;2023-02-28T00:00:24;103380.31;;;0.61;79.04
72061;BME280;59925;52.136;5.420;2023-02-28T00:02:51;103384.38;;;0.65;78.80
72061;BME280;59925;52.136;5.420;2023-02-28T00:05:20;103385.03;;;0.67;78.95
72061;BME280;59925;52.136;5.420;2023-02-28T00:07:47;103383.78;;;0.71;78.68
72061;BME280;59925;52.136;5.420;2023-02-28T00:10:17;103387.94;;;0.74;79.45
72061;BME280;59925;52.136;5.420;2023-02-28T00:12:47;103388.53;;;0.78;78.97
72061;BME280;59925;52.136;5.420;2023-02-28T00:15:14;103391.00;;;0.79;79.24
72061;BME280;59925;52.136;5.420;2023-02-28T00:17:40;103395.16;;;0.82;79.66
72061;BME280;59925;52.136;5.420;2023-02-28T00:20:08;103394.88;;;0.85;79.59
72061;BME280;59925;52.136;5.420;2023-02-28T00:22:40;103389.19;;;0.89;79.72
72061;BME280;59925;52.136;5.420;2023-02-28T00:25:08;103392.53;;;0.91;79.86
72061;BME280;59925;52.136;5.420;2023-02-28T00:27:36;103385.00;;;0.97;79.63
72061;BME280;59925;52.136;5.420;2023-02-28T00:30:05;103388.19;;;1.00;79.57
72061;BME280;59925;52.136;5.420;2023-02-28T00:32:32;103387.91;;;1.03;80.02
72061;BME280;59925;52.136;5.420;2023-02-28T00:35:01;103389.28;;;1.07;79.59
72061;BME280;59925;52.136;5.420;2023-02-28T00:37:27;103386.53;;;1.09;79.90
72061;BME280;59925;52.136;5.420;2023-02-28T00:39:54;103380.25;;;1.10;79.90
72061;BME280;59925;52.136;5.420;2023-02-28T00:42:20;103383.59;;;1.12;80.07
72061;BME280;59925;52.136;5.420;2023-02-28T00:44:47;103384.25;;;1.14;80.10
72061;BME280;59925;52.136;5.420;2023-02-28T00:47:13;103379.53;;;1.18;80.38
72061;BME280;59925;52.136;5.420;2023-02-28T00:49:40;103386.50;;;1.19;80.02
72061;BME280;59925;52.136;5.420;2023-02-28T00:52:07;103380.22;;;1.20;80.47
72061;BME280;59925;52.136;5.420;2023-02-28T00:54:33;103376.59;;;1.21;80.53
72061;BME280;59925;52.136;5.420;2023-02-28T00:56:59;103379.81;;;1.25;80.61
72061;BME280;59925;52.136;5.420;2023-02-28T00:59:26;103372.41;;;1.28;80.61
72061;BME280;59925;52.136;5.420;2023-02-28T01:01:53;103380.88;;;1.32;80.15
72061;BME280;59925;52.136;5.420;2023-02-28T01:04:19;103388.66;;;1.33;80.57
72061;BME280;59925;52.136;5.420;2023-02-28T01:06:45;103380.44;;;1.36;80.50
72061;BME280;59925;52.136;5.420;2023-02-28T01:09:12;103383.63;;;1.40;80.16
72061;BME280;59925;52.136;5.420;2023-02-28T01:11:38;103384.31;;;1.42;80.41
72061;BME280;59925;52.136;5.420;2023-02-28T01:14:07;103388.50;;;1.45;80.43
72061;BME280;59925;52.136;5.420;2023-02-28T01:16:34;103389.31;;;1.45;80.01
72061;BME280;59925;52.136;5.420;2023-02-28T01:19:01;103384.56;;;1.49;79.73
72061;BME280;59925;52.136;5.420;2023-02-28T01:21:27;103375.53;;;1.51;79.73
72061;BME280;59925;52.136;5.420;2023-02-28T01:23:56;103386.78;;;1.53;80.12
72061;BME280;59925;52.136;5.420;2023-02-28T01:26:23;103380.50;;;1.55;79.61
72061;BME280;59925;52.136;5.420;2023-02-28T01:28:52;103374.41;;;1.54;79.77
72061;BME280;59925;52.136;5.420;2023-02-28T01:31:20;103365.19;;;1.58;80.02
72061;BME280;59925;52.136;5.420;2023-02-28T01:33:47;103365.88;;;1.60;79.65
72061;BME280;59925;52.136;5.420;2023-02-28T01:36:16;103366.72;;;1.61;79.71
72061;BME280;59925;52.136;5.420;2023-02-28T01:38:43;103367.25;;;1.64;79.30
72061;BME280;59925;52.136;5.420;2023-02-28T01:46:10;103377.38;;;1.69;79.66
72061;BME280;59925;52.136;5.420;2023-02-28T01:48:45;103370.13;;;1.71;79.23
72061;BME280;59925;52.136;5.420;2023-02-28T01:51:17;103360.69;;;1.68;80.01
72061;BME280;59925;52.136;5.420;2023-02-28T01:53:50;103359.72;;;1.70;79.96
72061;BME280;59925;52.136;5.420;2023-02-28T01:56:21;103363.47;;;1.67;80.12
72061;BME280;59925;52.136;5.420;2023-02-28T01:58:50;103359.03;;;1.67;79.94
72061;BME280;59925;52.136;5.420;2023-02-28T02:01:19;103351.63;;;1.71;80.19
72061;BME280;59925;52.136;5.420;2023-02-28T02:03:49;103347.31;;;1.70;79.70
72061;BME280;59925;52.136;5.420;2023-02-28T02:06:27;103350.94;;;1.69;79.68
72061;BME280;59925;52.136;5.420;2023-02-28T02:08:55;103343.16;;;1.67;80.48
72061;BME280;59925;52.136;5.420;2023-02-28T02:11:24;103344.81;;;1.68;80.48
72061;BME280;59925;52.136;5.420;2023-02-28T02:14:53;103347.47;;;1.68;80.92
72061;BME280;59925;52.136;5.420;2023-02-28T02:17:08;103337.72;;;1.69;80.81
72061;BME280;59925;52.136;5.420;2023-02-28T02:25:42;103337.41;;;1.72;81.23
72061;BME280;59925;52.136;5.420;2023-02-28T02:31:20;103346.88;;;1.75;81.30
72061;BME280;59925;52.136;5.420;2023-02-28T02:37:02;103350.06;;;1.78;81.51
72061;BME280;59925;52.136;5.420;2023-02-28T02:39:54;103342.78;;;1.80;81.10
72061;BME280;59925;52.136;5.420;2023-02-28T02:42:29;103339.16;;;1.81;81.21
72061;BME280;59925;52.136;5.420;2023-02-28T02:45:01;103350.44;;;1.83;81.29
72061;BME280;59925;52.136;5.420;2023-02-28T02:47:30;103344.00;;;1.86;81.36
72061;BME280;59925;52.136;5.420;2023-02-28T02:50:02;103346.34;;;1.89;81.04
72061;BME280;59925;52.136;5.420;2023-02-28T02:52:39;103343.41;;;1.92;80.85
72061;BME280;59925;52.136;5.420;2023-02-28T02:55:08;103345.38;;;1.90;80.56
72061;BME280;59925;52.136;5.420;2023-02-28T02:57:45;103341.91;;;1.90;80.94
72061;BME280;59925;52.136;5.420;2023-02-28T03:00:16;103341.75;;;1.91;81.17
72061;BME280;59925;52.136;5.420;2023-02-28T03:02:44;103342.44;;;1.93;81.19
72061;BME280;59925;52.136;5.420;2023-02-28T03:05:23;103343.94;;;1.96;81.42
72061;BME280;59925;52.136;5.420;2023-02-28T03:07:51;103346.47;;;1.97;81.52
72061;BME280;59925;52.136;5.420;2023-02-28T03:10:41;103357.69;;;1.99;81.31
72061;BME280;59925;52.136;5.420;2023-02-28T03:16:49;103345.03;;;2.03;81.45
72061;BME280;59925;52.136;5.420;2023-02-28T03:22:04;103344.06;;;2.04;81.72
72061;BME280;59925;52.136;5.420;2023-02-28T03:24:45;103343.03;;;2.05;81.74
72061;BME280;59925;52.136;5.420;2023-02-28T03:27:25;103350.84;;;2.07;81.73
72061;BME280;59925;52.136;5.420;2023-02-28T03:30:09;103353.63;;;2.05;81.36
72061;BME280;59925;52.136;5.420;2023-02-28T03:32:40;103345.69;;;2.05;81.57
72061;BME280;59925;52.136;5.420;2023-02-28T03:35:12;103350.00;;;2.06;81.59
72061;BME280;59925;52.136;5.420;2023-02-28T03:37:42;103346.38;;;2.07;81.55
72061;BME280;59925;52.136;5.420;2023-02-28T03:40:15;103345.41;;;2.08;81.69
72061;BME280;59925;52.136;5.420;2023-02-28T03:42:46;103344.41;;;2.09;81.76
72061;BME280;59925;52.136;5.420;2023-02-28T03:45:26;103355.69;;;2.11;81.46
72061;BME280;59925;52.136;5.420;2023-02-28T03:48:00;103363.63;;;2.11;81.59
72061;BME280;59925;52.136;5.420;2023-02-28T03:50:40;103365.44;;;2.11;81.44
72061;BME280;59925;52.136;5.420;2023-02-28T03:53:12;103371.72;;;2.10;81.55
72061;BME280;59925;52.136;5.420;2023-02-28T03:55:44;103371.72;;;2.10;81.57
72061;BME280;59925;52.136;5.420;2023-02-28T03:58:26;103375.47;;;2.07;81.90
72061;BME280;59925;52.136;5.420;2023-02-28T04:01:00;103372.84;;;2.07;81.60
72061;BME280;59925;52.136;5.420;2023-02-28T04:03:37;103364.91;;;2.07;81.28
72061;BME280;59925;52.136;5.420;2023-02-28T04:06:07;103363.09;;;2.08;81.24
72061;BME280;59925;52.136;5.420;2023-02-28T04:08:34;103357.94;;;2.06;81.16
72061;BME280;59925;52.136;5.420;2023-02-28T04:11:05;103363.38;;;2.05;80.94
72061;BME280;59925;52.136;5.420;2023-02-28T04:13:32;103367.03;;;2.04;80.47
72061;BME280;59925;52.136;5.420;2023-02-28T04:15:59;103375.94;;;2.03;80.89
72061;BME280;59925;52.136;5.420;2023-02-28T04:18:25;103372.06;;;1.97;79.91
72061;BME280;59925;52.136;5.420;2023-02-28T04:20:52;103365.13;;;1.96;79.11
72061;BME280;59925;52.136;5.420;2023-02-28T04:23:18;103364.59;;;1.92;78.13
72061;BME280;59925;52.136;5.420;2023-02-28T04:25:45;103375.16;;;1.92;77.16
72061;BME280;59925;52.136;5.420;2023-02-28T04:28:11;103371.16;;;1.88;77.07
72061;BME280;59925;52.136;5.420;2023-02-28T04:30:37;103377.19;;;1.80;75.89
72061;BME280;59925;52.136;5.420;2023-02-28T04:33:05;103382.38;;;1.72;75.05
72061;BME280;59925;52.136;5.420;2023-02-28T04:35:32;103377.53;;;1.67;74.44
72061;BME280;59925;52.136;5.420;2023-02-28T04:37:58;103379.22;;;1.68;74.68
72061;BME280;59925;52.136;5.420;2023-02-28T04:40:24;103375.88;;;1.66;74.56
72061;BME280;59925;52.136;5.420;2023-02-28T04:42:51;103388.41;;;1.64;74.17
72061;BME280;59925;52.136;5.420;2023-02-28T04:45:17;103391.03;;;1.64;74.12
72061;BME280;59925;52.136;5.420;2023-02-28T04:47:44;103388.94;;;1.68;74.30
72061;BME280;59925;52.136;5.420;2023-02-28T04:50:10;103389.78;;;1.68;74.30
72061;BME280;59925;52.136;5.420;2023-02-28T04:52:37;103376.56;;;1.68;74.39
72061;BME280;59925;52.136;5.420;2023-02-28T04:55:04;103373.91;;;1.68;74.52
72061;BME280;59925;52.136;5.420;2023-02-28T04:57:30;103381.72;;;1.60;74.54
72061;BME280;59925;52.136;5.420;2023-02-28T04:59:57;103390.63;;;1.59;74.70
72061;BME280;59925;52.136;5.420;2023-02-28T05:02:23;103384.00;;;1.55;74.44
72061;BME280;59925;52.136;5.420;2023-02-28T05:04:50;103382.22;;;1.46;74.75
72061;BME280;59925;52.136;5.420;2023-02-28T05:07:16;103379.88;;;1.43;75.35
72061;BME280;59925;52.136;5.420;2023-02-28T05:09:43;103376.00;;;1.37;75.34
72061;BME280;59925;52.136;5.420;2023-02-28T05:12:09;103376.03;;;1.27;76.05
72061;BME280;59925;52.136;5.420;2023-02-28T05:14:35;103378.56;;;1.19;76.45
72061;BME280;59925;52.136;5.420;2023-02-28T05:17:02;103383.59;;;1.12;77.09
72061;BME280;59925;52.136;5.420;2023-02-28T05:19:29;103387.34;;;1.10;77.52
72061;BME280;59925;52.136;5.420;2023-02-28T05:21:55;103390.94;;;1.09;77.69
72061;BME280;59925;52.136;5.420;2023-02-28T05:24:22;103393.63;;;0.99;78.53
72061;BME280;59925;52.136;5.420;2023-02-28T05:26:51;103400.56;;;1.00;78.44
72061;BME280;59925;52.136;5.420;2023-02-28T05:29:18;103392.50;;;1.01;78.63
72061;BME280;59925;52.136;5.420;2023-02-28T05:31:45;103398.75;;;1.00;78.92
72061;BME280;59925;52.136;5.420;2023-02-28T05:34:12;103393.22;;;0.94;79.31
72061;BME280;59925;52.136;5.420;2023-02-28T05:36:41;103391.53;;;0.93;79.39
72061;BME280;59925;52.136;5.420;2023-02-28T05:39:08;103392.25;;;0.95;79.65
72061;BME280;59925;52.136;5.420;2023-02-28T05:41:42;103394.19;;;0.93;79.87
72061;BME280;59925;52.136;5.420;2023-02-28T05:44:09;103392.38;;;0.93;80.10
72061;BME280;59925;52.136;5.420;2023-02-28T05:46:36;103384.16;;;0.96;80.41
72061;BME280;59925;52.136;5.420;2023-02-28T05:49:02;103396.84;;;0.93;79.78
72061;BME280;59925;52.136;5.420;2023-02-28T05:51:29;103396.00;;;0.92;80.41
72061;BME280;59925;52.136;5.420;2023-02-28T05:53:59;103394.03;;;0.94;80.71
72061;BME280;59925;52.136;5.420;2023-02-28T05:56:26;103401.00;;;0.95;80.65
72061;BME280;59925;52.136;5.420;2023-02-28T05:58:53;103404.59;;;0.94;80.67
72061;BME280;59925;52.136;5.420;2023-02-28T06:04:00;103387.50;;;0.88;81.10
72061;BME280;59925;52.136;5.420;2023-02-28T06:06:28;103392.53;;;0.82;81.27
72061;BME280;59925;52.136;5.420;2023-02-28T06:08:56;103394.19;;;0.83;81.75
72061;BME280;59925;52.136;5.420;2023-02-28T06:11:23;103393.50;;;0.81;81.82
72061;BME280;59925;52.136;5.420;2023-02-28T06:13:55;103397.09;;;0.80;82.36
72061;BME280;59925;52.136;5.420;2023-02-28T06:16:23;103391.81;;;0.80;82.50
72061;BME280;59925;52.136;5.420;2023-02-28T06:18:50;103388.22;;;0.81;82.43
72061;BME280;59925;52.136;5.420;2023-02-28T06:21:17;103390.19;;;0.79;82.58
72061;BME280;59925;52.136;5.420;2023-02-28T06:23:43;103391.81;;;0.80;83.07
72061;BME280;59925;52.136;5.420;2023-02-28T06:26:11;103387.41;;;0.80;83.25
72061;BME280;59925;52.136;5.420;2023-02-28T06:28:37;103376.69;;;0.82;82.88
72061;BME280;59925;52.136;5.420;2023-02-28T06:31:11;103383.78;;;0.81;83.40
72061;BME280;59925;52.136;5.420;2023-02-28T06:33:39;103382.81;;;0.82;83.48
72061;BME280;59925;52.136;5.420;2023-02-28T06:36:06;103385.19;;;0.85;83.57
72061;BME280;59925;52.136;5.420;2023-02-28T06:38:33;103385.03;;;0.87;83.60
72061;BME280;59925;52.136;5.420;2023-02-28T06:41:00;103387.50;;;0.88;83.73
72061;BME280;59925;52.136;5.420;2023-02-28T06:43:33;103384.59;;;0.91;83.89
72061;BME280;59925;52.136;5.420;2023-02-28T06:46:01;103386.25;;;0.93;83.90
72061;BME280;59925;52.136;5.420;2023-02-28T06:48:28;103389.72;;;0.93;84.07
72061;BME280;59925;52.136;5.420;2023-02-28T06:51:05;103372.25;;;0.92;84.34
72061;BME280;59925;52.136;5.420;2023-02-28T06:53:32;103383.78;;;0.91;84.28
72061;BME280;59925;52.136;5.420;2023-02-28T06:55:59;103383.47;;;0.94;84.63
72061;BME280;59925;52.136;5.420;2023-02-28T06:58:25;103394.72;;;0.96;84.76
72061;BME280;59925;52.136;5.420;2023-02-28T07:00:52;103390.69;;;1.02;84.74
72061;BME280;59925;52.136;5.420;2023-02-28T07:03:20;103394.19;;;1.02;84.72
72061;BME280;59925;52.136;5.420;2023-02-28T07:05:47;103394.03;;;1.04;84.84
72061;BME280;59925;52.136;5.420;2023-02-28T07:08:13;103395.97;;;1.12;84.81
72061;BME280;59925;52.136;5.420;2023-02-28T07:10:40;103399.13;;;1.15;84.87
72061;BME280;59925;52.136;5.420;2023-02-28T07:13:08;103404.31;;;1.17;84.61
72061;BME280;59925;52.136;5.420;2023-02-28T07:15:36;103397.88;;;1.19;84.73
72061;BME280;59925;52.136;5.420;2023-02-28T07:18:07;103397.59;;;1.22;84.66
72061;BME280;59925;52.136;5.420;2023-02-28T07:20:33;103397.19;;;1.27;84.83
72061;BME280;59925;52.136;5.420;2023-02-28T07:23:00;103400.22;;;1.32;84.82
72061;BME280;59925;52.136;5.420;2023-02-28T07:25:28;103404.38;;;1.35;84.76
72061;BME280;59925;52.136;5.420;2023-02-28T07:27:55;103408.53;;;1.37;84.79
72061;BME280;59925;52.136;5.420;2023-02-28T07:30:22;103414.38;;;1.41;84.79
72061;BME280;59925;52.136;5.420;2023-02-28T07:32:48;103405.34;;;1.44;84.58
72061;BME280;59925;52.136;5.420;2023-02-28T07:35:15;103403.34;;;1.46;85.01
72061;BME280;59925;52.136;5.420;2023-02-28T07:37:42;103403.06;;;1.49;84.70
72061;BME280;59925;52.136;5.420;2023-02-28T07:40:10;103402.94;;;1.50;84.73
72061;BME280;59925;52.136;5.420;2023-02-28T07:42:41;103419.34;;;1.54;84.74
72061;BME280;59925;52.136;5.420;2023-02-28T07:45:09;103417.41;;;1.56;85.40
72061;BME280;59925;52.136;5.420;2023-02-28T07:47:38;103421.41;;;1.60;85.13
72061;BME280;59925;52.136;5.420;2023-02-28T07:50:06;103422.38;;;1.59;84.68
72061;BME280;59925;52.136;5.420;2023-02-28T07:52:33;103422.25;;;1.61;85.08
72061;BME280;59925;52.136;5.420;2023-02-28T07:54:59;103413.78;;;1.57;84.90
72061;BME280;59925;52.136;5.420;2023-02-28T07:57:26;103415.28;;;1.60;84.90
72061;BME280;59925;52.136;5.420;2023-02-28T07:59:52;103416.66;;;1.64;84.73
72061;BME280;59925;52.136;5.420;2023-02-28T08:02:19;103407.00;;;1.73;85.25
72061;BME280;59925;52.136;5.420;2023-02-28T08:04:45;103418.16;;;1.76;85.11
72061;BME280;59925;52.136;5.420;2023-02-28T08:07:13;103423.69;;;1.83;84.59
72061;BME280;59925;52.136;5.420;2023-02-28T08:09:40;103438.41;;;1.86;84.76
72061;BME280;59925;52.136;5.420;2023-02-28T08:12:07;103435.63;;;1.87;84.46
72061;BME280;59925;52.136;5.420;2023-02-28T08:14:34;103437.97;;;1.90;84.53
72061;BME280;59925;52.136;5.420;2023-02-28T08:17:01;103432.56;;;1.92;84.78
72061;BME280;59925;52.136;5.420;2023-02-28T08:19:28;103451.72;;;1.94;84.27
72061;BME280;59925;52.136;5.420;2023-02-28T08:21:55;103451.91;;;1.92;84.28
72061;BME280;59925;52.136;5.420;2023-02-28T08:24:22;103445.03;;;1.99;84.14
72061;BME280;59925;52.136;5.420;2023-02-28T08:26:49;103443.91;;;2.02;84.26
72061;BME280;59925;52.136;5.420;2023-02-28T08:29:16;103441.34;;;2.10;84.38
72061;BME280;59925;52.136;5.420;2023-02-28T08:31:42;103439.56;;;2.11;83.75
72061;BME280;59925;52.136;5.420;2023-02-28T08:34:11;103437.44;;;2.14;83.53
72061;BME280;59925;52.136;5.420;2023-02-28T08:36:38;103435.56;;;2.25;83.18
72061;BME280;59925;52.136;5.420;2023-02-28T08:39:06;103435.78;;;2.32;83.13
72061;BME280;59925;52.136;5.420;2023-02-28T08:41:33;103437.69;;;2.39;83.13
72061;BME280;59925;52.136;5.420;2023-02-28T08:43:59;103439.19;;;2.42;82.39
72061;BME280;59925;52.136;5.420;2023-02-28T08:46:26;103436.94;;;2.47;82.06
72061;BME280;59925;52.136;5.420;2023-02-28T08:48:54;103432.16;;;2.51;81.70
72061;BME280;59925;52.136;5.420;2023-02-28T08:51:21;103423.25;;;2.52;80.99
72061;BME280;59925;52.136;5.420;2023-02-28T08:53:54;103420.06;;;2.48;79.53
72061;BME280;59925;52.136;5.420;2023-02-28T08:56:21;103429.69;;;2.49;78.53
72061;BME280;59925;52.136;5.420;2023-02-28T08:58:49;103434.81;;;2.51;78.46
72061;BME280;59925;52.136;5.420;2023-02-28T09:01:18;103431.72;;;2.55;77.41
72061;BME280;59925;52.136;5.420;2023-02-28T09:03:46;103429.69;;;2.49;77.08
72061;BME280;59925;52.136;5.420;2023-02-28T09:06:14;103431.25;;;2.60;76.63
72061;BME280;59925;52.136;5.420;2023-02-28T09:08:41;103432.56;;;2.74;75.58
72061;BME280;59925;52.136;5.420;2023-02-28T09:11:09;103428.44;;;2.98;76.06
72061;BME280;59925;52.136;5.420;2023-02-28T09:13:36;103424.66;;;3.27;74.20
72061;BME280;59925;52.136;5.420;2023-02-28T09:16:05;103424.97;;;3.58;73.74
72061;BME280;59925;52.136;5.420;2023-02-28T09:18:34;103428.41;;;3.77;72.00
72061;BME280;59925;52.136;5.420;2023-02-28T09:21:05;103431.25;;;3.92;69.25
72061;BME280;59925;52.136;5.420;2023-02-28T09:23:32;103428.44;;;3.93;67.73
72061;BME280;59925;52.136;5.420;2023-02-28T09:25:58;103427.50;;;4.11;66.55
72061;BME280;59925;52.136;5.420;2023-02-28T09:28:25;103427.53;;;4.27;66.31
72061;BME280;59925;52.136;5.420;2023-02-28T09:30:53;103434.03;;;4.33;65.44
72061;BME280;59925;52.136;5.420;2023-02-28T09:33:21;103429.72;;;4.40;62.74
72061;BME280;59925;52.136;5.420;2023-02-28T09:35:48;103430.38;;;4.92;61.52
72061;BME280;59925;52.136;5.420;2023-02-28T09:38:16;103418.88;;;5.81;60.73
72061;BME280;59925;52.136;5.420;2023-02-28T09:43:17;103431.38;;;8.02;54.49
72061;BME280;59925;52.136;5.420;2023-02-28T09:46:00;103424.13;;;7.95;52.20
72061;BME280;59925;52.136;5.420;2023-02-28T09:48:35;103433.31;;;6.50;56.20
72061;BME280;59925;52.136;5.420;2023-02-28T09:51:27;103435.81;;;5.88;55.41
72061;BME280;59925;52.136;5.420;2023-02-28T09:53:56;103443.28;;;5.45;53.57
72061;BME280;59925;52.136;5.420;2023-02-28T09:56:29;103442.16;;;5.14;52.91
72061;BME280;59925;52.136;5.420;2023-02-28T09:59:18;103448.16;;;5.00;52.11
72061;BME280;59925;52.136;5.420;2023-02-28T10:04:43;103439.34;;;5.07;54.64
72061;BME280;59925;52.136;5.420;2023-02-28T10:10:29;103434.66;;;5.34;54.29
72061;BME280;59925;52.136;5.420;2023-02-28T10:13:00;103423.03;;;5.19;52.86
72061;BME280;59925;52.136;5.420;2023-02-28T10:15:30;103426.31;;;5.46;52.42
72061;BME280;59925;52.136;5.420;2023-02-28T10:18:01;103420.69;;;5.80;51.80
72061;BME280;59925;52.136;5.420;2023-02-28T10:20:38;103416.81;;;6.00;52.23
72061;BME280;59925;52.136;5.420;2023-02-28T10:25:35;103411.38;;;6.16;52.23
72061;BME280;59925;52.136;5.420;2023-02-28T10:28:13;103408.84;;;5.91;52.60
72061;BME280;59925;52.136;5.420;2023-02-28T10:30:46;103408.81;;;6.00;54.48
72061;BME280;59925;52.136;5.420;2023-02-28T10:33:34;103409.66;;;6.47;50.28
72061;BME280;59925;52.136;5.420;2023-02-28T10:36:03;103410.31;;;6.49;48.22
72061;BME280;59925;52.136;5.420;2023-02-28T10:38:35;103416.47;;;6.49;46.86
72061;BME280;59925;52.136;5.420;2023-02-28T10:43:38;103412.91;;;6.95;48.61
72061;BME280;59925;52.136;5.420;2023-02-28T10:49:24;103407.16;;;7.66;48.18
72061;BME280;59925;52.136;5.420;2023-02-28T10:51:36;103412.19;;;7.61;45.78
72061;BME280;59925;52.136;5.420;2023-02-28T10:54:03;103402.66;;;7.52;47.53
72061;BME280;59925;52.136;5.420;2023-02-28T10:56:30;103398.97;;;7.53;46.98
72061;BME280;59925;52.136;5.420;2023-02-28T10:59:01;103405.34;;;7.37;46.87
72061;BME280;59925;52.136;5.420;2023-02-28T11:03:58;103389.41;;;7.44;46.73
72061;BME280;59925;52.136;5.420;2023-02-28T11:06:33;103385.00;;;7.88;46.55
72061;BME280;59925;52.136;5.420;2023-02-28T11:09:04;103392.44;;;8.29;46.00
72061;BME280;59925;52.136;5.420;2023-02-28T11:11:43;103386.19;;;8.43;45.26
72061;BME280;59925;52.136;5.420;2023-02-28T11:14:27;103381.38;;;8.54;45.74
72061;BME280;59925;52.136;5.420;2023-02-28T11:16:59;103385.84;;;8.32;45.08
72061;BME280;59925;52.136;5.420;2023-02-28T11:19:38;103377.88;;;8.53;43.82
72061;BME280;59925;52.136;5.420;2023-02-28T11:22:06;103382.38;;;8.53;42.97
72061;BME280;59925;52.136;5.420;2023-02-28T11:24:44;103380.47;;;8.47;43.03
72061;BME280;59925;52.136;5.420;2023-02-28T11:29:58;103366.91;;;8.77;44.65
72061;BME280;59925;52.136;5.420;2023-02-28T11:32:27;103371.25;;;9.06;43.40
72061;BME280;59925;52.136;5.420;2023-02-28T11:35:21;103366.09;;;9.53;43.13
72061;BME280;59925;52.136;5.420;2023-02-28T11:37:49;103360.28;;;9.98;42.35
72061;BME280;59925;52.136;5.420;2023-02-28T11:40:18;103362.13;;;9.97;41.85
72061;BME280;59925;52.136;5.420;2023-02-28T11:48:23;103349.41;;;10.40;40.49
72061;BME280;59925;52.136;5.420;2023-02-28T11:51:11;103346.06;;;10.24;39.73
72061;BME280;59925;52.136;5.420;2023-02-28T11:54:13;103346.06;;;10.24;40.51
72061;BME280;59925;52.136;5.420;2023-02-28T11:56:51;103360.16;;;10.53;40.25
72061;BME280;59925;52.136;5.420;2023-02-28T11:59:54;103354.34;;;10.77;39.39
72061;BME280;59925;52.136;5.420;2023-02-28T12:02:24;103346.31;;;10.36;40.00
72061;BME280;59925;52.136;5.420;2023-02-28T12:05:22;103342.78;;;10.36;38.88
72061;BME280;59925;52.136;5.420;2023-02-28T12:13:25;103338.59;;;11.07;39.32
72061;BME280;59925;52.136;5.420;2023-02-28T12:16:06;103339.53;;;11.33;38.25
72061;BME280;59925;52.136;5.420;2023-02-28T12:27:06;103332.31;;;10.41;39.45
72061;BME280;59925;52.136;5.420;2023-02-28T12:29:49;103322.31;;;10.88;39.90
72061;BME280;59925;52.136;5.420;2023-02-28T12:32:26;103317.94;;;11.08;39.15
72061;BME280;59925;52.136;5.420;2023-02-28T12:35:02;103314.03;;;11.03;36.95
72061;BME280;59925;52.136;5.420;2023-02-28T12:37:53;103319.63;;;10.95;38.23
72061;BME280;59925;52.136;5.420;2023-02-28T12:40:25;103314.75;;;11.31;37.41
72061;BME280;59925;52.136;5.420;2023-02-28T12:43:04;103316.75;;;11.42;36.72
72061;BME280;59925;52.136;5.420;2023-02-28T12:46:03;103318.31;;;12.02;36.86
72061;BME280;59925;52.136;5.420;2023-02-28T12:48:42;103317.25;;;12.03;34.23
72061;BME280;59925;52.136;5.420;2023-02-28T12:51:09;103318.13;;;11.90;36.07
72061;BME280;59925;52.136;5.420;2023-02-28T12:53:57;103311.06;;;12.28;34.80
72061;BME280;59925;52.136;5.420;2023-02-28T12:56:43;103307.69;;;12.07;35.13
72061;BME280;59925;52.136;5.420;2023-02-28T13:02:41;103303.09;;;12.15;35.52
72061;BME280;59925;52.136;5.420;2023-02-28T13:08:27;103300.41;;;12.15;36.09
72061;BME280;59925;52.136;5.420;2023-02-28T13:10:58;103295.63;;;12.42;35.19
72061;BME280;59925;52.136;5.420;2023-02-28T13:13:28;103291.50;;;12.39;34.08
72061;BME280;59925;52.136;5.420;2023-02-28T13:16:00;103289.53;;;12.03;34.93
72061;BME280;59925;52.136;5.420;2023-02-28T13:18:41;103292.94;;;11.85;35.00
72061;BME280;59925;52.136;5.420;2023-02-28T13:21:22;103291.56;;;12.07;34.49
72061;BME280;59925;52.136;5.420;2023-02-28T13:31:25;103276.53;;;12.25;33.59
72061;BME280;59925;52.136;5.420;2023-02-28T13:36:29;103272.59;;;12.02;33.94
72061;BME280;59925;52.136;5.420;2023-02-28T13:38:59;103278.19;;;11.94;34.74
72061;BME280;59925;52.136;5.420;2023-02-28T13:44:21;103271.34;;;12.49;34.85
72061;BME280;59925;52.136;5.420;2023-02-28T14:05:36;103262.00;;;12.70;33.46
72061;BME280;59925;52.136;5.420;2023-02-28T14:08:12;103247.34;;;12.66;33.17
72061;BME280;59925;52.136;5.420;2023-02-28T14:10:51;103248.31;;;12.90;33.07
72061;BME280;59925;52.136;5.420;2023-02-28T14:13:42;103245.03;;;12.88;32.84
72061;BME280;59925;52.136;5.420;2023-02-28T14:16:17;103245.91;;;12.45;32.97
72061;BME280;59925;52.136;5.420;2023-02-28T14:18:59;103246.00;;;12.56;33.52
72061;BME280;59925;52.136;5.420;2023-02-28T14:21:32;103245.19;;;12.56;33.10
72061;BME280;59925;52.136;5.420;2023-02-28T14:24:19;103253.69;;;12.71;33.28
72061;BME280;59925;52.136;5.420;2023-02-28T14:26:57;103238.41;;;13.21;33.16
72061;BME280;59925;52.136;5.420;2023-02-28T14:37:53;103232.28;;;15.16;30.78
72061;BME280;59925;52.136;5.420;2023-02-28T14:40:30;103234.28;;;14.92;30.18
72061;BME280;59925;52.136;5.420;2023-02-28T14:43:03;103235.81;;;14.88;30.71
72061;BME280;59925;52.136;5.420;2023-02-28T14:45:32;103233.41;;;14.50;30.34
72061;BME280;59925;52.136;5.420;2023-02-28T14:48:01;103226.75;;;13.82;31.49
72061;BME280;59925;52.136;5.420;2023-02-28T14:50:32;103232.78;;;13.53;30.84
72061;BME280;59925;52.136;5.420;2023-02-28T14:53:00;103227.38;;;12.92;32.28
72061;BME280;59925;52.136;5.420;2023-02-28T14:55:33;103224.78;;;13.16;32.79
72061;BME280;59925;52.136;5.420;2023-02-28T14:58:02;103223.28;;;13.20;32.24
72061;BME280;59925;52.136;5.420;2023-02-28T15:00:34;103225.72;;;12.91;32.80
72061;BME280;59925;52.136;5.420;2023-02-28T15:03:19;103222.84;;;13.66;32.12
72061;BME280;59925;52.136;5.420;2023-02-28T15:05:55;103226.66;;;14.12;31.60
72061;BME280;59925;52.136;5.420;2023-02-28T15:08:22;103224.09;;;14.70;30.36
72061;BME280;59925;52.136;5.420;2023-02-28T15:10:55;103225.44;;;14.55;29.05